createdAt,value
2018-03-14T00:01:51.254Z,90.20
2018-03-14T00:04:17.736Z,90.20
2018-03-14T00:06:44.252Z,90.20
2018-03-14T00:09:11.823Z,89.80
2018-03-14T00:11:38.322Z,89.80
2018-03-14T00:14:04.946Z,89.30
2018-03-14T00:16:31.534Z,89.00
2018-03-14T00:18:58.040Z,89.10
2018-03-14T00:21:25.372Z,89.80
2018-03-14T00:23:51.895Z,89.90
2018-03-14T00:26:18.409Z,89.90
2018-03-14T00:28:45.647Z,88.80
2018-03-14T00:31:12.131Z,88.80
2018-03-14T00:33:38.723Z,89.10
2018-03-14T00:36:05.949Z,89.10
2018-03-14T00:38:32.445Z,89.20
2018-03-14T00:40:58.969Z,89.80
2018-03-14T00:43:25.487Z,89.90
2018-03-14T00:45:51.981Z,89.60
2018-03-14T00:48:18.457Z,89.60
2018-03-14T00:50:45.737Z,90.00
2018-03-14T00:53:12.244Z,90.00
2018-03-14T00:55:39.498Z,90.20
2018-03-14T00:58:06.744Z,89.90
2018-03-14T01:00:33.240Z,89.80
2018-03-14T01:02:59.743Z,88.90
2018-03-14T01:05:26.253Z,89.30
2018-03-14T01:07:53.496Z,89.20
2018-03-14T01:10:20.070Z,89.20
2018-03-14T01:12:46.565Z,88.40
2018-03-14T01:15:13.066Z,89.00
2018-03-14T01:17:39.593Z,89.80
2018-03-14T01:20:06.084Z,90.20
2018-03-14T01:22:32.588Z,90.20
2018-03-14T01:24:59.126Z,90.20
2018-03-14T01:27:25.624Z,90.20
2018-03-14T01:29:52.150Z,90.40
2018-03-14T01:32:18.649Z,90.50
2018-03-14T01:34:45.213Z,90.80
2018-03-14T01:37:11.755Z,89.90
2018-03-14T01:39:38.257Z,88.70
2018-03-14T01:42:04.744Z,88.80
2018-03-14T01:44:31.269Z,89.10
2018-03-14T01:46:57.763Z,89.60
2018-03-14T01:49:24.261Z,89.70
2018-03-14T01:51:50.778Z,90.20
2018-03-14T01:54:17.283Z,90.60
2018-03-14T01:56:43.820Z,90.60
2018-03-14T01:59:11.057Z,90.70
2018-03-14T02:01:37.527Z,90.70
2018-03-14T02:04:04.788Z,90.00
2018-03-14T02:06:31.308Z,90.00
2018-03-14T02:08:57.814Z,89.40
2018-03-14T02:11:24.308Z,89.80
2018-03-14T02:13:50.802Z,90.20
2018-03-14T02:16:18.036Z,90.20
2018-03-14T02:18:44.518Z,90.20
2018-03-14T02:21:11.039Z,90.20
2018-03-14T02:23:37.558Z,90.10
2018-03-14T02:26:04.064Z,90.00
2018-03-14T02:28:31.384Z,90.20
2018-03-14T02:30:57.891Z,90.30
2018-03-14T02:33:24.414Z,90.50
2018-03-14T02:35:51.706Z,90.50
2018-03-14T02:38:18.189Z,90.50
2018-03-14T02:40:44.681Z,90.50
2018-03-14T02:43:11.242Z,90.60
2018-03-14T02:45:37.768Z,90.70
2018-03-14T02:48:04.251Z,90.20
2018-03-14T02:50:30.745Z,89.70
2018-03-14T02:52:57.226Z,90.10
2018-03-14T02:55:23.713Z,90.30
2018-03-14T02:57:50.206Z,90.40
2018-03-14T03:00:16.756Z,90.40
2018-03-14T03:02:43.277Z,90.30
2018-03-14T03:05:10.498Z,88.80
2018-03-14T03:07:36.999Z,88.80
2018-03-14T03:10:03.572Z,89.30
2018-03-14T03:12:30.043Z,89.80
2018-03-14T03:14:57.253Z,90.00
2018-03-14T03:17:23.741Z,90.00
2018-03-14T03:19:50.226Z,90.40
2018-03-14T03:22:16.703Z,90.70
2018-03-14T03:24:43.192Z,90.50
2018-03-14T03:27:09.662Z,90.80
2018-03-14T03:29:36.870Z,91.00
2018-03-14T03:32:03.393Z,91.00
2018-03-14T03:34:29.874Z,90.60
2018-03-14T03:36:56.378Z,90.30
2018-03-14T03:39:22.876Z,90.40
2018-03-14T03:41:49.389Z,90.50
2018-03-14T03:44:15.854Z,90.70
2018-03-14T03:46:42.355Z,90.90
2018-03-14T03:49:09.582Z,90.20
2018-03-14T03:51:36.113Z,90.30
2018-03-14T03:54:02.697Z,90.30
2018-03-14T03:56:29.177Z,90.50
2018-03-14T03:58:55.660Z,90.80
2018-03-14T04:01:22.159Z,90.80
2018-03-14T04:03:48.650Z,91.20
2018-03-14T04:06:15.151Z,90.00
2018-03-14T04:08:42.387Z,90.80
2018-03-14T04:11:08.891Z,90.80
2018-03-14T04:13:35.361Z,90.90
2018-03-14T04:16:01.853Z,91.20
2018-03-14T04:18:28.332Z,91.00
2018-03-14T04:20:54.876Z,91.20
2018-03-14T04:23:22.091Z,90.20
2018-03-14T04:25:48.574Z,90.30
2018-03-14T04:28:15.802Z,90.00
2018-03-14T04:30:42.264Z,90.10
2018-03-14T04:33:08.754Z,90.10
2018-03-14T04:35:35.294Z,90.70
2018-03-14T04:38:01.779Z,89.70
2018-03-14T04:40:28.270Z,89.90
2018-03-14T04:42:54.766Z,90.50
2018-03-14T04:45:21.262Z,90.70
2018-03-14T04:47:47.804Z,90.70
2018-03-14T04:50:14.432Z,90.90
2018-03-14T04:52:40.913Z,90.80
2018-03-14T04:55:07.424Z,91.10
2018-03-14T04:57:33.922Z,90.80
2018-03-14T05:00:00.409Z,91.30
2018-03-14T05:02:26.938Z,90.40
2018-03-14T05:04:53.427Z,90.40
2018-03-14T05:07:19.938Z,91.10
2018-03-14T05:09:46.769Z,91.40
2018-03-14T05:12:13.997Z,91.50
2018-03-14T05:14:40.474Z,91.50
2018-03-14T05:17:06.959Z,91.80
2018-03-14T05:19:34.180Z,92.80
2018-03-14T05:22:00.652Z,92.70
2018-03-14T05:24:27.140Z,92.20
2018-03-14T05:26:53.787Z,91.90
2018-03-14T05:29:20.257Z,92.20
2018-03-14T05:31:46.810Z,90.90
2018-03-14T05:34:13.370Z,91.20
2018-03-14T05:36:40.641Z,92.00
2018-03-14T05:39:07.124Z,92.00
2018-03-14T05:41:33.594Z,92.10
2018-03-14T05:44:00.086Z,92.20
2018-03-14T05:46:26.586Z,92.20
2018-03-14T05:48:53.837Z,91.40
2018-03-14T05:51:20.341Z,91.30
2018-03-14T05:53:46.854Z,91.40
2018-03-14T05:56:13.495Z,91.70
2018-03-14T05:58:39.993Z,91.90
2018-03-14T06:01:07.217Z,92.10
2018-03-14T06:03:33.701Z,92.00
2018-03-14T06:06:00.199Z,92.30
2018-03-14T06:08:26.769Z,92.50
2018-03-14T06:10:53.288Z,92.60
2018-03-14T06:13:20.531Z,92.70
2018-03-14T06:15:47.049Z,92.60
2018-03-14T06:18:13.557Z,92.70
2018-03-14T06:20:40.155Z,92.70
2018-03-14T06:23:06.649Z,92.60
2018-03-14T06:25:33.184Z,92.40
2018-03-14T06:27:59.710Z,92.00
2018-03-14T06:30:26.218Z,91.80
2018-03-14T06:32:52.754Z,91.60
2018-03-14T06:35:19.295Z,91.60
2018-03-14T06:37:45.766Z,91.60
2018-03-14T06:40:12.249Z,91.80
2018-03-14T06:42:38.761Z,91.80
2018-03-14T06:45:05.262Z,91.60
2018-03-14T06:47:31.811Z,91.90
2018-03-14T06:49:58.301Z,92.20
2018-03-14T06:52:24.811Z,91.60
2018-03-14T06:54:52.058Z,90.60
2018-03-14T06:57:19.289Z,90.60
2018-03-14T06:59:57.841Z,90.60
2018-03-14T07:02:36.495Z,90.50
2018-03-14T07:05:15.030Z,90.10
2018-03-14T07:07:41.514Z,84.00
2018-03-14T07:10:08.043Z,80.70
2018-03-14T07:12:34.533Z,77.60
2018-03-14T07:15:01.003Z,73.00
2018-03-14T07:17:28.252Z,68.10
2018-03-14T07:19:55.570Z,65.10
2018-03-14T07:22:22.055Z,65.10
2018-03-14T07:24:48.543Z,65.10
2018-03-14T07:27:15.018Z,62.50
2018-03-14T07:29:42.229Z,62.80
2018-03-14T07:32:08.692Z,62.80
2018-03-14T07:34:35.173Z,61.00
2018-03-14T07:37:01.650Z,61.30
2018-03-14T07:39:28.120Z,60.80
2018-03-14T07:41:54.605Z,63.70
2018-03-14T07:44:21.822Z,61.00
2018-03-14T07:46:48.324Z,61.00
2018-03-14T07:49:15.596Z,58.30
2018-03-14T07:51:42.113Z,58.30
2018-03-14T07:54:08.635Z,57.60
2018-03-14T07:56:35.864Z,57.30
2018-03-14T07:59:02.389Z,57.30
2018-03-14T08:01:28.879Z,58.50
2018-03-14T08:03:55.433Z,58.10
2018-03-14T08:06:21.902Z,56.60
2018-03-14T08:08:48.368Z,57.00
2018-03-14T08:11:14.876Z,56.80
2018-03-14T08:13:41.460Z,55.70
2018-03-14T08:16:08.653Z,57.90
2018-03-14T08:18:35.238Z,57.90
2018-03-14T08:21:02.526Z,56.70
2018-03-14T08:23:29.010Z,56.70
2018-03-14T08:25:55.622Z,57.20
2018-03-14T08:28:22.180Z,60.10
2018-03-14T08:30:48.711Z,62.30
2018-03-14T08:33:15.244Z,63.20
2018-03-14T08:35:41.760Z,64.10
2018-03-14T08:38:08.314Z,65.60
2018-03-14T08:40:34.791Z,67.10
2018-03-14T08:43:01.259Z,65.80
2018-03-14T08:45:27.793Z,65.20
2018-03-14T08:47:55.052Z,68.30
2018-03-14T08:50:21.539Z,67.50
2018-03-14T08:52:48.882Z,68.70
2018-03-14T08:55:16.098Z,69.30
2018-03-14T08:57:42.626Z,69.30
2018-03-14T09:00:09.108Z,68.60
2018-03-14T09:02:36.329Z,68.90
2018-03-14T09:05:02.864Z,69.00
2018-03-14T09:07:29.398Z,67.70
2018-03-14T09:09:55.922Z,67.80
2018-03-14T09:12:22.531Z,69.00
2018-03-14T09:14:49.036Z,69.50
2018-03-14T09:17:15.518Z,69.10
2018-03-14T09:19:42.007Z,69.80
2018-03-14T09:22:09.312Z,70.20
2018-03-14T09:24:35.864Z,70.00
2018-03-14T09:27:02.345Z,69.90
2018-03-14T09:29:29.575Z,70.20
2018-03-14T09:31:56.080Z,70.10
2018-03-14T09:34:22.637Z,70.10
2018-03-14T09:36:49.120Z,70.20
2018-03-14T09:39:15.629Z,69.70
2018-03-14T09:41:42.872Z,69.70
2018-03-14T09:44:09.396Z,69.60
2018-03-14T09:46:35.883Z,70.20
2018-03-14T09:49:02.370Z,69.20
2018-03-14T09:51:28.973Z,69.40
2018-03-14T09:53:55.485Z,68.70
2018-03-14T09:56:21.978Z,69.40
2018-03-14T09:58:48.461Z,68.30
2018-03-14T10:01:14.932Z,66.70
2018-03-14T10:03:41.427Z,66.60
2018-03-14T10:06:07.929Z,67.40
2018-03-14T10:08:35.176Z,65.10
2018-03-14T10:11:01.661Z,65.10
2018-03-14T10:13:28.175Z,60.20
2018-03-14T10:15:54.671Z,56.40
2018-03-14T10:18:21.182Z,55.70
2018-03-14T10:20:47.703Z,57.60
2018-03-14T10:23:14.202Z,57.60
2018-03-14T10:25:41.493Z,59.80
2018-03-14T10:28:07.949Z,59.80
2018-03-14T10:30:34.472Z,59.90
2018-03-14T10:33:01.723Z,59.60
2018-03-14T10:35:29.015Z,60.10
2018-03-14T10:37:56.244Z,59.90
2018-03-14T10:40:23.450Z,57.90
2018-03-14T10:42:49.932Z,57.80
2018-03-14T10:45:16.418Z,55.20
2018-03-14T10:47:42.964Z,50.60
2018-03-14T10:50:09.540Z,47.60
2018-03-14T10:52:36.016Z,46.00
2018-03-14T10:55:02.601Z,46.10
2018-03-14T10:57:29.117Z,44.20
2018-03-14T10:59:55.635Z,46.70
2018-03-14T11:02:22.189Z,49.30
2018-03-14T11:04:48.704Z,48.50
2018-03-14T11:07:15.197Z,47.50
2018-03-14T11:09:41.686Z,46.40
2018-03-14T11:12:08.218Z,42.50
2018-03-14T11:14:34.774Z,41.10
2018-03-14T11:17:01.993Z,36.80
2018-03-14T11:19:28.504Z,37.10
2018-03-14T11:21:55.769Z,39.70
2018-03-14T11:24:22.265Z,39.50
2018-03-14T11:26:48.763Z,38.40
2018-03-14T11:29:15.305Z,39.80
2018-03-14T11:31:41.771Z,43.10
2018-03-14T11:34:08.242Z,43.70
2018-03-14T11:36:35.457Z,43.20
2018-03-14T11:39:01.950Z,43.10
2018-03-14T11:41:28.432Z,43.60
2018-03-14T11:43:54.914Z,44.50
2018-03-14T11:46:21.410Z,43.30
2018-03-14T11:48:47.895Z,42.80
2018-03-14T11:51:14.366Z,43.90
2018-03-14T11:53:40.880Z,42.20
2018-03-14T11:56:07.369Z,41.80
2018-03-14T11:58:33.946Z,42.20
2018-03-14T12:01:00.441Z,42.20
2018-03-14T12:03:26.966Z,42.00
2018-03-14T12:05:54.203Z,41.70
2018-03-14T12:08:20.726Z,41.70
2018-03-14T12:10:47.216Z,39.40
2018-03-14T12:13:13.727Z,40.00
2018-03-14T12:15:40.255Z,39.80
2018-03-14T12:18:06.743Z,38.20
2018-03-14T12:20:33.286Z,39.80
2018-03-14T12:22:59.825Z,38.30
2018-03-14T12:25:26.310Z,38.70
2018-03-14T12:27:53.542Z,39.10
2018-03-14T12:30:20.068Z,39.10
2018-03-14T12:32:46.536Z,40.80
2018-03-14T12:35:13.797Z,39.00
2018-03-14T12:37:40.303Z,38.90
2018-03-14T12:40:06.830Z,39.10
2018-03-14T12:42:33.356Z,40.60
2018-03-14T12:44:59.828Z,40.30
2018-03-14T12:47:26.355Z,40.90
2018-03-14T12:49:53.601Z,41.60
2018-03-14T12:52:20.871Z,42.20
2018-03-14T12:54:48.087Z,43.80
2018-03-14T12:57:14.600Z,43.80
2018-03-14T12:59:41.130Z,44.10
2018-03-14T13:02:07.611Z,44.40
2018-03-14T13:04:34.134Z,44.90
2018-03-14T13:07:00.660Z,45.90
2018-03-14T13:09:27.217Z,46.00
2018-03-14T13:11:53.767Z,46.40
2018-03-14T13:14:21.002Z,46.30
2018-03-14T13:16:47.586Z,46.40
2018-03-14T13:19:14.055Z,46.40
2018-03-14T13:21:40.568Z,46.40
2018-03-14T13:24:07.089Z,48.00
2018-03-14T13:26:33.618Z,49.30
2018-03-14T13:29:00.115Z,49.70
2018-03-14T13:31:26.628Z,50.10
2018-03-14T13:33:53.130Z,46.60
2018-03-14T13:36:19.606Z,41.50
2018-03-14T13:38:46.105Z,40.80
2018-03-14T13:41:12.604Z,42.40
2018-03-14T13:43:39.850Z,40.90
2018-03-14T13:46:07.102Z,41.70
2018-03-14T13:48:33.634Z,41.70
2018-03-14T13:51:00.948Z,41.90
2018-03-14T13:53:27.471Z,41.90
2018-03-14T13:55:53.953Z,42.70
2018-03-14T13:58:20.579Z,39.80
2018-03-14T14:00:47.065Z,36.60
2018-03-14T14:03:14.640Z,33.90
2018-03-14T14:05:41.154Z,33.20
2018-03-14T14:08:07.781Z,33.10
2018-03-14T14:10:35.110Z,32.70
2018-03-14T14:13:01.594Z,33.20
2018-03-14T14:15:28.151Z,35.30
2018-03-14T14:17:54.658Z,35.10
2018-03-14T14:20:21.153Z,35.10
2018-03-14T14:22:51.727Z,35.20
2018-03-14T14:25:18.280Z,34.50
2018-03-14T14:27:44.820Z,35.50
2018-03-14T14:30:11.332Z,34.90
2018-03-14T14:32:37.829Z,34.00
2018-03-14T14:35:04.322Z,33.60
2018-03-14T14:37:30.900Z,33.80
2018-03-14T14:39:57.405Z,32.20
2018-03-14T14:42:23.925Z,30.20
2018-03-14T14:44:50.414Z,30.40
2018-03-14T14:47:16.924Z,31.40
2018-03-14T14:49:43.424Z,34.40
2018-03-14T14:52:10.040Z,35.70
2018-03-14T14:54:36.712Z,34.50
2018-03-14T14:57:03.360Z,37.30
2018-03-14T14:59:29.871Z,37.90
2018-03-14T15:01:56.466Z,39.10
2018-03-14T15:04:23.857Z,40.50
2018-03-14T15:06:50.464Z,40.60
2018-03-14T15:09:17.738Z,40.80
2018-03-14T15:11:44.221Z,40.80
2018-03-14T15:14:10.712Z,41.40
2018-03-14T15:16:37.268Z,40.50
2018-03-14T15:19:03.914Z,41.70
2018-03-14T15:21:30.429Z,41.60
2018-03-14T15:23:57.071Z,42.10
2018-03-14T15:26:23.722Z,39.70
2018-03-14T15:28:50.262Z,37.70
2018-03-14T15:31:16.759Z,37.10
2018-03-14T15:33:43.417Z,36.90
2018-03-14T15:36:10.040Z,36.70
2018-03-14T15:38:36.690Z,39.00
2018-03-14T15:41:03.284Z,38.70
2018-03-14T15:43:29.841Z,39.20
2018-03-14T15:45:57.179Z,40.00
2018-03-14T15:48:23.799Z,40.10
2018-03-14T15:50:50.375Z,40.70
2018-03-14T15:53:17.710Z,41.10
2018-03-14T15:55:44.198Z,41.00
2018-03-14T15:58:10.849Z,41.80
2018-03-14T16:00:37.384Z,42.50
2018-03-14T16:03:04.023Z,42.20
2018-03-14T16:05:30.619Z,44.30
2018-03-14T16:07:57.223Z,44.80
2018-03-14T16:10:23.729Z,46.70
2018-03-14T16:12:50.263Z,48.30
2018-03-14T16:15:17.483Z,51.20
2018-03-14T16:17:44.007Z,51.70
2018-03-14T16:20:10.559Z,52.30
2018-03-14T16:22:37.059Z,51.40
2018-03-14T16:25:03.667Z,54.80
2018-03-14T16:27:30.258Z,56.10
2018-03-14T16:29:57.565Z,52.50
2018-03-14T16:32:24.216Z,52.40
2018-03-14T16:34:50.728Z,53.80
2018-03-14T16:37:17.419Z,53.70
2018-03-14T16:39:43.938Z,56.20
2018-03-14T16:42:10.617Z,55.70
2018-03-14T16:44:37.256Z,54.00
2018-03-14T16:47:03.794Z,57.30
2018-03-14T16:49:30.414Z,55.90
2018-03-14T16:51:57.840Z,56.40
2018-03-14T16:54:24.370Z,56.30
2018-03-14T16:56:50.853Z,57.60
2018-03-14T16:59:17.398Z,58.80
2018-03-14T17:01:43.949Z,60.50
2018-03-14T17:04:11.488Z,59.10
2018-03-14T17:06:38.010Z,59.10
2018-03-14T17:09:04.743Z,58.00
2018-03-14T17:11:32.032Z,56.20
2018-03-14T17:13:58.514Z,56.10
2018-03-14T17:16:25.156Z,57.40
2018-03-14T17:18:51.722Z,57.10
2018-03-14T17:21:18.457Z,57.80
2018-03-14T17:23:45.075Z,57.60
2018-03-14T17:26:12.835Z,57.00
2018-03-14T17:28:39.452Z,57.70
2018-03-14T17:31:06.038Z,59.10
2018-03-14T17:33:32.526Z,58.40
2018-03-14T17:35:58.996Z,57.90
2018-03-14T17:38:26.230Z,58.90
2018-03-14T17:40:52.697Z,58.90
2018-03-14T17:43:19.269Z,60.60
2018-03-14T17:45:45.801Z,61.20
2018-03-14T17:48:12.279Z,61.80
2018-03-14T17:50:38.777Z,62.00
2018-03-14T17:53:06.193Z,62.90
2018-03-14T17:55:32.727Z,62.90
2018-03-14T17:57:59.943Z,55.40
2018-03-14T18:00:27.235Z,55.10
2018-03-14T18:02:53.747Z,55.10
2018-03-14T18:05:20.978Z,55.10
2018-03-14T18:07:47.458Z,55.10
2018-03-14T18:10:13.938Z,54.70
2018-03-14T18:12:40.406Z,55.10
2018-03-14T18:15:07.698Z,57.10
2018-03-14T18:17:34.197Z,57.10
2018-03-14T18:20:00.720Z,57.60
2018-03-14T18:22:27.250Z,58.10
2018-03-14T18:24:53.783Z,58.30
2018-03-14T18:27:20.266Z,58.60
2018-03-14T18:29:46.830Z,58.90
2018-03-14T18:32:13.308Z,59.00
2018-03-14T18:34:40.573Z,58.20
2018-03-14T18:37:07.798Z,58.20
2018-03-14T18:39:34.288Z,58.10
2018-03-14T18:42:00.921Z,58.60
2018-03-14T18:44:27.627Z,59.20
2018-03-14T18:46:54.276Z,59.50
2018-03-14T18:49:20.859Z,60.20
2018-03-14T18:51:47.515Z,60.30
2018-03-14T18:54:14.131Z,60.10
2018-03-14T18:56:40.800Z,60.50
2018-03-14T18:59:07.275Z,61.30
2018-03-14T19:01:33.768Z,61.10
2018-03-14T19:04:00.455Z,61.60
2018-03-14T19:06:27.064Z,62.40
2018-03-14T19:08:54.301Z,65.40
2018-03-14T19:11:20.915Z,65.50
2018-03-14T19:13:48.165Z,67.40
2018-03-14T19:16:14.671Z,67.50
2018-03-14T19:18:42.033Z,67.80
2018-03-14T19:21:08.588Z,67.80
2018-03-14T19:23:35.146Z,68.00
2018-03-14T19:26:01.707Z,68.20
2018-03-14T19:28:29.036Z,68.60
2018-03-14T19:30:55.655Z,68.70
2018-03-14T19:33:22.165Z,68.70
2018-03-14T19:35:48.684Z,68.90
2018-03-14T19:38:15.365Z,69.00
2018-03-14T19:40:41.990Z,68.90
2018-03-14T19:43:08.548Z,69.60
2018-03-14T19:45:35.178Z,68.40
2018-03-14T19:48:01.704Z,68.10
2018-03-14T19:50:28.230Z,67.90
2018-03-14T19:52:55.002Z,68.20
2018-03-14T19:55:21.513Z,68.40
2018-03-14T19:57:48.130Z,68.90
2018-03-14T20:00:14.836Z,69.10
2018-03-14T20:02:41.414Z,69.20
2018-03-14T20:05:08.022Z,69.70
2018-03-14T20:07:35.441Z,70.80
2018-03-14T20:10:02.312Z,70.70
2018-03-14T20:12:28.894Z,70.70
2018-03-14T20:14:55.495Z,72.30
2018-03-14T20:17:22.784Z,74.90
2018-03-14T20:19:49.327Z,74.90
2018-03-14T20:22:15.936Z,75.20
2018-03-14T20:24:43.368Z,75.60
2018-03-14T20:27:10.007Z,76.40
2018-03-14T20:29:36.647Z,75.60
2018-03-14T20:32:03.942Z,76.20
2018-03-14T20:34:30.588Z,76.20
2018-03-14T20:36:57.177Z,76.00
2018-03-14T20:39:23.817Z,75.60
2018-03-14T20:41:50.390Z,75.70
2018-03-14T20:44:17.499Z,75.40
2018-03-14T20:46:44.140Z,75.50
2018-03-14T20:49:10.777Z,75.50
2018-03-14T20:51:37.349Z,75.80
2018-03-14T20:54:03.954Z,75.50
2018-03-14T20:56:30.487Z,75.80
2018-03-14T20:58:57.883Z,75.50
2018-03-14T21:01:24.480Z,75.40
2018-03-14T21:03:51.125Z,75.60
2018-03-14T21:06:17.760Z,75.40
2018-03-14T21:08:44.415Z,75.30
2018-03-14T21:11:11.138Z,75.50
2018-03-14T21:13:37.673Z,75.60
2018-03-14T21:16:04.413Z,76.00
2018-03-14T21:18:31.109Z,75.90
2018-03-14T21:20:57.610Z,75.80
2018-03-14T21:23:24.226Z,76.50
2018-03-14T21:25:50.874Z,76.30
2018-03-14T21:28:18.241Z,75.60
2018-03-14T21:30:44.959Z,75.60
2018-03-14T21:33:11.699Z,75.70
2018-03-14T21:35:38.197Z,75.80
2018-03-14T21:38:04.694Z,76.20
2018-03-14T21:40:31.195Z,76.20
2018-03-14T21:42:57.675Z,75.70
2018-03-14T21:45:24.293Z,75.80
2018-03-14T21:47:50.814Z,76.00
2018-03-14T21:50:17.376Z,75.80
2018-03-14T21:52:43.860Z,75.90
2018-03-14T21:55:11.116Z,76.20
2018-03-14T21:57:37.606Z,76.20
2018-03-14T22:00:04.134Z,76.20
2018-03-14T22:02:30.675Z,76.00
2018-03-14T22:04:57.173Z,76.10
2018-03-14T22:07:23.853Z,76.20
2018-03-14T22:09:50.382Z,76.10
2018-03-14T22:12:16.878Z,76.30
2018-03-14T22:14:43.385Z,76.30
2018-03-14T22:17:09.882Z,76.30
2018-03-14T22:19:37.148Z,76.90
2018-03-14T22:22:04.399Z,76.90
2018-03-14T22:24:30.909Z,77.00
2018-03-14T22:26:57.498Z,77.20
2018-03-14T22:29:23.966Z,77.20
2018-03-14T22:31:50.525Z,77.50
2018-03-14T22:34:17.781Z,77.50
2018-03-14T22:36:44.330Z,77.50
2018-03-14T22:39:10.840Z,77.50
2018-03-14T22:41:38.064Z,77.90
2018-03-14T22:44:04.550Z,77.90
2018-03-14T22:46:31.038Z,78.00
2018-03-14T22:48:58.995Z,78.20
2018-03-14T22:51:25.505Z,78.10
2018-03-14T22:53:51.998Z,78.30
2018-03-14T22:56:18.513Z,78.30
2018-03-14T22:58:45.006Z,78.40
2018-03-14T23:01:11.568Z,78.30
2018-03-14T23:03:38.065Z,78.20
2018-03-14T23:06:04.548Z,78.60
2018-03-14T23:08:31.104Z,77.80
2018-03-14T23:10:57.624Z,78.50
2018-03-14T23:13:24.096Z,77.50
2018-03-14T23:15:50.592Z,77.80
2018-03-14T23:18:17.122Z,77.80
2018-03-14T23:20:43.626Z,77.80
2018-03-14T23:23:10.099Z,77.70
2018-03-14T23:25:36.581Z,77.50
2018-03-14T23:28:03.184Z,77.10
2018-03-14T23:30:29.659Z,77.20
2018-03-14T23:32:56.160Z,77.20
2018-03-14T23:35:22.623Z,77.40
2018-03-14T23:37:49.151Z,78.00
2018-03-14T23:40:15.653Z,77.80
2018-03-14T23:42:42.135Z,77.60
2018-03-14T23:45:08.623Z,77.70
2018-03-14T23:47:35.141Z,77.90
2018-03-14T23:50:01.656Z,77.70
2018-03-14T23:52:28.167Z,77.50
2018-03-14T23:54:54.697Z,77.10
2018-03-14T23:57:21.191Z,77.10
2018-03-14T23:59:47.690Z,77.20
